Time;durP1;ratioP1;P1;durP2;ratioP2;P2;SDS_P1;SDS_P2;PMS_P1;PMS_P2;Temp;Humidity;BMP_temperature;BMP_pressure;BME280_temperature;BME280_humidity;BME280_pressure;Samples;Min_cycle;Max_cycle;Signal;HPM_P1;HPM_P2
2021/07/26 00:02:29;;;;;;;0.17;0.17;;;;;;;;;;4989080;28;20144;-64
2021/07/26 00:04:55;;;;;;;0.40;0.40;;;;;;;;;;5022904;28;20029;-65
2021/07/26 00:07:22;;;;;;;0.52;0.50;;;;;;;;;;5030684;28;20037;-63
2021/07/26 00:09:50;;;;;;;0.28;0.28;;;;;;;;;;4998925;28;20024;-64
2021/07/26 00:12:16;;;;;;;0.22;0.22;;;;;;;;;;5032996;28;20579;-63
2021/07/26 00:14:44;;;;;;;2.65;0.85;;;;;;;;;;5018090;28;20025;-64
2021/07/26 00:17:12;;;;;;;0.03;0.03;;;;;;;;;;5019160;28;20368;-63
2021/07/26 00:19:37;;;;;;;0.65;0.32;;;;;;;;;;5016932;28;20078;-63
2021/07/26 00:22:03;;;;;;;0.00;0.00;;;;;;;;;;5020062;28;20028;-64
2021/07/26 00:24:28;;;;;;;0.17;0.17;;;;;;;;;;5035088;28;20726;-63
2021/07/26 00:26:54;;;;;;;0.40;0.40;;;;;;;;;;5037227;28;20021;-64
2021/07/26 00:29:22;;;;;;;0.55;0.55;;;;;;;;;;5016601;28;20039;-64
2021/07/26 00:31:50;;;;;;;0.68;0.65;;;;;;;;;;5034970;28;20075;-64
2021/07/26 00:34:19;;;;;;;0.88;0.38;;;;;;;;;;5016673;28;20032;-63
2021/07/26 00:36:52;;;;;;;1.63;0.85;;;;;;;;;;5035415;28;20492;-64
2021/07/26 00:39:21;;;;;;;0.20;0.20;;;;;;;;;;5035324;28;20048;-63
2021/07/26 00:41:47;;;;;;;0.22;0.22;;;;;;;;;;5021169;28;20021;-66
2021/07/26 00:44:18;;;;;;;0.00;0.00;;;;;;;;;;5032666;28;20428;-63
2021/07/26 00:46:45;;;;;;;0.43;0.43;;;;;;;;;;5034751;28;20043;-63
2021/07/26 00:49:11;;;;;;;0.00;0.00;;;;;;;;;;5003890;28;20029;-62
2021/07/26 00:51:40;;;;;;;0.75;0.75;;;;;;;;;;5034459;28;20071;-65
2021/07/26 00:54:07;;;;;;;0.10;0.10;;;;;;;;;;5035255;28;20098;-63
2021/07/26 00:56:35;;;;;;;0.32;0.25;;;;;;;;;;5035366;28;20100;-62
2021/07/26 00:59:03;;;;;;;0.57;0.57;;;;;;;;;;5035033;28;20650;-63
2021/07/26 01:01:29;;;;;;;0.30;0.15;;;;;;;;;;5035310;28;20029;-63
2021/07/26 01:03:55;;;;;;;0.95;0.55;;;;;;;;;;5033933;28;20064;-63
2021/07/26 01:06:20;;;;;;;0.70;0.70;;;;;;;;;;5009286;28;20029;-63
2021/07/26 01:08:46;;;;;;;0.40;0.40;;;;;;;;;;5017556;28;20032;-64
2021/07/26 01:11:14;;;;;;;0.10;0.10;;;;;;;;;;5037223;28;20025;-64
2021/07/26 01:13:40;;;;;;;0.17;0.17;;;;;;;;;;5035090;28;20033;-64
2021/07/26 01:16:06;;;;;;;0.82;0.38;;;;;;;;;;5034281;28;20029;-63
2021/07/26 01:18:39;;;;;;;1.02;0.85;;;;;;;;;;5036182;28;20043;-63
2021/07/26 01:21:05;;;;;;;0.43;0.20;;;;;;;;;;5035610;28;20025;-63
2021/07/26 01:23:32;;;;;;;0.40;0.40;;;;;;;;;;5019460;28;20112;-63
2021/07/26 01:26:00;;;;;;;0.20;0.20;;;;;;;;;;5025077;28;20093;-62
2021/07/26 01:28:29;;;;;;;0.28;0.28;;;;;;;;;;5018111;28;20044;-64
2021/07/26 01:30:57;;;;;;;0.65;0.20;;;;;;;;;;5036023;28;20028;-62
2021/07/26 01:33:25;;;;;;;0.52;0.35;;;;;;;;;;5023577;28;20030;-62
2021/07/26 01:35:54;;;;;;;0.40;0.40;;;;;;;;;;5035084;28;20025;-63
2021/07/26 01:38:20;;;;;;;0.15;0.15;;;;;;;;;;5008276;28;20083;-64
2021/07/26 01:40:50;;;;;;;0.00;0.00;;;;;;;;;;5034935;28;20182;-62
2021/07/26 01:43:32;;;;;;;0.52;0.52;;;;;;;;;;5017446;28;20045;-63
2021/07/26 01:46:21;;;;;;;0.10;0.10;;;;;;;;;;5026242;28;20037;-64
2021/07/26 01:48:49;;;;;;;0.20;0.20;;;;;;;;;;5026245;28;20724;-64
2021/07/26 01:51:29;;;;;;;0.43;0.43;;;;;;;;;;5038463;28;20052;-64
2021/07/26 01:53:57;;;;;;;0.00;0.00;;;;;;;;;;5005453;28;22218;-62
2021/07/26 01:56:27;;;;;;;0.08;0.08;;;;;;;;;;5039802;28;20033;-63
2021/07/26 01:58:59;;;;;;;0.15;0.15;;;;;;;;;;5037945;28;20090;-63
2021/07/26 02:01:29;;;;;;;0.00;0.00;;;;;;;;;;5010661;28;20087;-63
2021/07/26 02:03:56;;;;;;;0.38;0.38;;;;;;;;;;5021616;28;20036;-65
2021/07/26 02:06:22;;;;;;;1.13;0.65;;;;;;;;;;5037459;28;20644;-63
2021/07/26 02:08:49;;;;;;;0.22;0.22;;;;;;;;;;5023407;28;20029;-63
2021/07/26 02:11:15;;;;;;;0.75;0.75;;;;;;;;;;5036266;28;20055;-62
2021/07/26 02:13:46;;;;;;;0.32;0.32;;;;;;;;;;5035177;28;20033;-64
2021/07/26 02:16:11;;;;;;;0.10;0.10;;;;;;;;;;5038772;28;20040;-64
2021/07/26 02:18:39;;;;;;;1.38;0.40;;;;;;;;;;5023905;28;20044;-63
2021/07/26 02:21:07;;;;;;;0.68;0.68;;;;;;;;;;5037235;28;20738;-63
2021/07/26 02:23:33;;;;;;;0.25;0.25;;;;;;;;;;5019355;28;20029;-63
2021/07/26 02:25:59;;;;;;;0.25;0.25;;;;;;;;;;5002412;28;20039;-62
2021/07/26 02:28:27;;;;;;;0.38;0.38;;;;;;;;;;5020569;28;20029;-64
2021/07/26 02:30:53;;;;;;;0.93;0.93;;;;;;;;;;5037962;28;20063;-63
2021/07/26 02:33:18;;;;;;;0.20;0.20;;;;;;;;;;5038148;28;20758;-63
2021/07/26 02:35:43;;;;;;;0.65;0.65;;;;;;;;;;5027433;28;20530;-63
2021/07/26 02:38:09;;;;;;;0.63;0.63;;;;;;;;;;5018716;28;20037;-62
2021/07/26 02:40:37;;;;;;;0.30;0.30;;;;;;;;;;5037152;28;20029;-64
2021/07/26 02:43:06;;;;;;;1.00;1.00;;;;;;;;;;5022146;28;20052;-62
2021/07/26 02:45:32;;;;;;;0.52;0.47;;;;;;;;;;5005486;28;20033;-63
2021/07/26 02:48:02;;;;;;;0.10;0.10;;;;;;;;;;5028256;28;22163;-63
2021/07/26 02:50:30;;;;;;;0.00;0.00;;;;;;;;;;5018587;28;20039;-63
2021/07/26 02:53:01;;;;;;;0.32;0.32;;;;;;;;;;4992374;28;20040;-62
2021/07/26 02:55:29;;;;;;;0.00;0.00;;;;;;;;;;5036707;28;20936;-63
2021/07/26 02:57:56;;;;;;;3.20;0.35;;;;;;;;;;5037666;28;20029;-63
2021/07/26 03:00:25;;;;;;;0.00;0.00;;;;;;;;;;5037361;28;20037;-62
2021/07/26 03:02:53;;;;;;;0.00;0.00;;;;;;;;;;5035553;28;20391;-63
2021/07/26 03:05:18;;;;;;;0.77;0.68;;;;;;;;;;5019795;28;20118;-63
2021/07/26 03:07:44;;;;;;;0.00;0.00;;;;;;;;;;5038095;28;20028;-64
2021/07/26 03:10:10;;;;;;;0.40;0.40;;;;;;;;;;5036902;28;20024;-63
2021/07/26 03:12:37;;;;;;;0.38;0.38;;;;;;;;;;5028484;28;20037;-63
2021/07/26 03:15:09;;;;;;;0.20;0.20;;;;;;;;;;5017802;28;20494;-63
2021/07/26 03:17:37;;;;;;;0.30;0.30;;;;;;;;;;5038161;28;20033;-63
2021/07/26 03:20:02;;;;;;;0.70;0.70;;;;;;;;;;5022723;28;20013;-64
2021/07/26 03:22:48;;;;;;;0.10;0.10;;;;;;;;;;5017569;28;20045;-63
2021/07/26 03:25:14;;;;;;;0.00;0.00;;;;;;;;;;5035634;28;20036;-63
2021/07/26 03:27:42;;;;;;;0.28;0.15;;;;;;;;;;5035527;28;20025;-65
2021/07/26 03:30:11;;;;;;;0.28;0.28;;;;;;;;;;5021889;28;20114;-63
2021/07/26 03:32:36;;;;;;;0.52;0.52;;;;;;;;;;5036946;28;20121;-63
2021/07/26 03:35:02;;;;;;;0.75;0.75;;;;;;;;;;5036989;28;20052;-63
2021/07/26 03:37:30;;;;;;;1.42;0.55;;;;;;;;;;5035867;28;20043;-63
2021/07/26 03:39:58;;;;;;;0.43;0.43;;;;;;;;;;5020728;28;20738;-62
2021/07/26 03:42:26;;;;;;;0.22;0.22;;;;;;;;;;5036912;28;20037;-64
2021/07/26 03:44:56;;;;;;;0.28;0.28;;;;;;;;;;5035932;28;20052;-63
2021/07/26 03:47:24;;;;;;;1.25;1.15;;;;;;;;;;5023984;28;20123;-64
2021/07/26 03:49:50;;;;;;;0.35;0.35;;;;;;;;;;5037038;28;20123;-63
2021/07/26 03:52:15;;;;;;;0.22;0.22;;;;;;;;;;5019938;28;20043;-63
2021/07/26 03:54:41;;;;;;;0.47;0.47;;;;;;;;;;5025812;28;20591;-63
2021/07/26 03:57:09;;;;;;;0.50;0.50;;;;;;;;;;5036847;28;20029;-64
2021/07/26 03:59:37;;;;;;;0.43;0.22;;;;;;;;;;5020859;28;20052;-62
2021/07/26 04:02:03;;;;;;;2.25;0.55;;;;;;;;;;5010327;28;20037;-63
2021/07/26 04:04:28;;;;;;;0.68;0.63;;;;;;;;;;5035052;28;20033;-64
2021/07/26 04:07:08;;;;;;;0.63;0.63;;;;;;;;;;5034345;28;20036;-63
2021/07/26 04:09:38;;;;;;;7.03;1.55;;;;;;;;;;5010897;28;20081;-63
2021/07/26 04:12:09;;;;;;;0.28;0.28;;;;;;;;;;5017271;28;20108;-63
2021/07/26 04:14:39;;;;;;;1.75;1.10;;;;;;;;;;5007779;28;21929;-64
2021/07/26 04:17:05;;;;;;;0.98;0.85;;;;;;;;;;5026015;28;20044;-63
2021/07/26 04:19:31;;;;;;;0.75;0.75;;;;;;;;;;5003645;28;20037;-62
2021/07/26 04:21:57;;;;;;;1.73;0.73;;;;;;;;;;5003578;28;20143;-61
2021/07/26 04:24:22;;;;;;;4.75;1.40;;;;;;;;;;5020418;28;20934;-63
2021/07/26 04:26:50;;;;;;;1.75;0.95;;;;;;;;;;5035721;28;20465;-63
2021/07/26 04:29:16;;;;;;;1.45;0.63;;;;;;;;;;5016449;28;20043;-63
2021/07/26 04:31:43;;;;;;;0.40;0.40;;;;;;;;;;5020970;28;20075;-63
2021/07/26 04:34:10;;;;;;;0.80;0.80;;;;;;;;;;5016447;28;20237;-64
2021/07/26 04:36:35;;;;;;;2.15;1.42;;;;;;;;;;5036917;28;20033;-64
2021/07/26 04:39:03;;;;;;;1.38;0.80;;;;;;;;;;5017247;28;21163;-62
2021/07/26 04:41:34;;;;;;;1.98;0.85;;;;;;;;;;5007891;28;20040;-63
2021/07/26 04:44:01;;;;;;;0.50;0.50;;;;;;;;;;5024374;28;20059;-63
2021/07/26 04:46:27;;;;;;;1.05;0.93;;;;;;;;;;5035773;28;20045;-63
2021/07/26 04:48:53;;;;;;;3.92;1.25;;;;;;;;;;5035866;28;20044;-63
2021/07/26 04:51:19;;;;;;;0.50;0.50;;;;;;;;;;5017015;28;20039;-62
2021/07/26 04:53:44;;;;;;;1.40;1.20;;;;;;;;;;5017868;28;20033;-64
2021/07/26 04:56:10;;;;;;;0.10;0.10;;;;;;;;;;5009744;28;20017;-64
2021/07/26 04:58:35;;;;;;;0.00;0.00;;;;;;;;;;5017673;28;20052;-63
2021/07/26 05:01:03;;;;;;;0.50;0.50;;;;;;;;;;5001063;28;20109;-64
2021/07/26 05:03:31;;;;;;;1.60;0.95;;;;;;;;;;5009254;28;20067;-63
2021/07/26 05:05:56;;;;;;;0.95;0.77;;;;;;;;;;5017476;28;20040;-65
2021/07/26 05:08:22;;;;;;;0.15;0.15;;;;;;;;;;5006551;28;20025;-64
2021/07/26 05:10:47;;;;;;;0.40;0.40;;;;;;;;;;5007128;28;20120;-64
2021/07/26 05:13:13;;;;;;;0.88;0.57;;;;;;;;;;5033224;28;20511;-65
2021/07/26 05:15:39;;;;;;;0.70;0.50;;;;;;;;;;5014202;28;21974;-63
2021/07/26 05:18:07;;;;;;;0.57;0.57;;;;;;;;;;5015923;28;20120;-63
2021/07/26 05:20:32;;;;;;;1.05;0.40;;;;;;;;;;5021621;28;20040;-63
2021/07/26 05:23:00;;;;;;;0.43;0.43;;;;;;;;;;5001972;28;20070;-64
2021/07/26 05:25:28;;;;;;;0.70;0.68;;;;;;;;;;5038836;28;20024;-64
2021/07/26 05:27:54;;;;;;;21.50;1.35;;;;;;;;;;5020022;28;20029;-64
2021/07/26 05:30:19;;;;;;;0.73;0.60;;;;;;;;;;5010199;28;20154;-64
2021/07/26 05:32:47;;;;;;;0.30;0.30;;;;;;;;;;5005197;28;20021;-62
2021/07/26 05:35:16;;;;;;;1.25;0.47;;;;;;;;;;5010482;28;20075;-65
2021/07/26 05:37:41;;;;;;;0.10;0.10;;;;;;;;;;5027276;28;20029;-64
2021/07/26 05:40:08;;;;;;;1.13;0.73;;;;;;;;;;5039096;28;20037;-65
2021/07/26 05:42:35;;;;;;;0.20;0.20;;;;;;;;;;5019105;28;20045;-64
2021/07/26 05:45:04;;;;;;;0.35;0.35;;;;;;;;;;5009240;28;20053;-64
2021/07/26 05:47:30;;;;;;;1.75;1.17;;;;;;;;;;5020270;28;20515;-64
2021/07/26 05:49:58;;;;;;;0.10;0.10;;;;;;;;;;5037008;28;20021;-66
2021/07/26 05:52:26;;;;;;;0.10;0.10;;;;;;;;;;5036151;28;20044;-65
2021/07/26 05:54:54;;;;;;;1.10;1.00;;;;;;;;;;4991830;28;20092;-64
2021/07/26 05:57:21;;;;;;;0.60;0.60;;;;;;;;;;5006315;28;20151;-64
2021/07/26 05:59:55;;;;;;;0.20;0.20;;;;;;;;;;5018911;28;20036;-65
2021/07/26 06:02:26;;;;;;;0.17;0.17;;;;;;;;;;5025557;28;20763;-65
2021/07/26 06:04:54;;;;;;;0.38;0.38;;;;;;;;;;5009055;28;20430;-66
2021/07/26 06:07:21;;;;;;;0.52;0.35;;;;;;;;;;5036686;28;20418;-65
2021/07/26 06:09:52;;;;;;;0.30;0.30;;;;;;;;;;5039178;28;20032;-64
2021/07/26 06:12:23;;;;;;;0.20;0.20;;;;;;;;;;5037792;28;20711;-64
2021/07/26 06:14:50;;;;;;;1.33;0.40;;;;;;;;;;5018225;28;20033;-65
2021/07/26 06:17:18;;;;;;;0.20;0.20;;;;;;;;;;5038960;28;20063;-65
2021/07/26 06:19:44;;;;;;;0.00;0.00;;;;;;;;;;5023787;28;20733;-64
2021/07/26 06:22:15;;;;;;;0.10;0.10;;;;;;;;;;5006707;28;20105;-64
2021/07/26 06:24:43;;;;;;;0.38;0.38;;;;;;;;;;5004299;28;20163;-65
2021/07/26 06:27:08;;;;;;;1.27;0.20;;;;;;;;;;5036112;28;20021;-65
2021/07/26 06:29:36;;;;;;;0.30;0.30;;;;;;;;;;5038718;28;20077;-66
2021/07/26 06:32:03;;;;;;;0.20;0.20;;;;;;;;;;5036027;28;20267;-66
2021/07/26 06:34:31;;;;;;;0.20;0.20;;;;;;;;;;5026575;28;21241;-65
2021/07/26 06:36:58;;;;;;;0.15;0.15;;;;;;;;;;5025377;28;20470;-65
2021/07/26 06:39:26;;;;;;;0.52;0.52;;;;;;;;;;5005090;28;20028;-64
2021/07/26 06:41:51;;;;;;;0.03;0.03;;;;;;;;;;5020792;28;20530;-63
2021/07/26 06:44:17;;;;;;;0.00;0.00;;;;;;;;;;5017101;28;20053;-65
2021/07/26 06:46:42;;;;;;;0.00;0.00;;;;;;;;;;5020635;28;20128;-64
2021/07/26 06:49:10;;;;;;;0.17;0.17;;;;;;;;;;5018634;28;20065;-64
2021/07/26 06:51:35;;;;;;;0.13;0.13;;;;;;;;;;5018421;28;20053;-66
2021/07/26 06:54:08;;;;;;;0.10;0.10;;;;;;;;;;5036677;28;20029;-65
2021/07/26 06:56:33;;;;;;;0.43;0.20;;;;;;;;;;5034775;28;20452;-65
2021/07/26 06:58:58;;;;;;;0.13;0.13;;;;;;;;;;5014460;28;20021;-64
2021/07/26 07:01:24;;;;;;;0.00;0.00;;;;;;;;;;5022856;28;20051;-65
2021/07/26 07:03:50;;;;;;;0.20;0.20;;;;;;;;;;5032989;28;20032;-65
2021/07/26 07:06:16;;;;;;;0.10;0.10;;;;;;;;;;5036768;28;20033;-64
2021/07/26 07:08:44;;;;;;;0.05;0.03;;;;;;;;;;5035430;28;20150;-64
2021/07/26 07:11:11;;;;;;;0.38;0.15;;;;;;;;;;5023841;28;20111;-65
2021/07/26 07:13:39;;;;;;;0.00;0.00;;;;;;;;;;5027005;28;20135;-64
2021/07/26 07:16:14;;;;;;;0.52;0.52;;;;;;;;;;5020298;28;20037;-64
2021/07/26 07:18:42;;;;;;;0.20;0.20;;;;;;;;;;5017718;28;20016;-64
2021/07/26 07:21:14;;;;;;;0.00;0.00;;;;;;;;;;5023310;28;20033;-64
2021/07/26 07:23:39;;;;;;;0.20;0.20;;;;;;;;;;5036293;28;20033;-64
2021/07/26 07:26:07;;;;;;;0.20;0.20;;;;;;;;;;5016745;28;20033;-63
2021/07/26 07:28:33;;;;;;;0.00;0.00;;;;;;;;;;5036692;28;20028;-63
2021/07/26 07:30:59;;;;;;;0.10;0.10;;;;;;;;;;5022755;28;20055;-64
2021/07/26 07:33:25;;;;;;;0.10;0.10;;;;;;;;;;5020339;28;21414;-63
2021/07/26 07:35:53;;;;;;;0.20;0.20;;;;;;;;;;5032061;28;21015;-63
2021/07/26 07:38:21;;;;;;;0.00;0.00;;;;;;;;;;5002909;28;20036;-63
2021/07/26 07:40:46;;;;;;;0.10;0.10;;;;;;;;;;5015720;28;20063;-63
2021/07/26 07:43:12;;;;;;;0.00;0.00;;;;;;;;;;5034446;28;20116;-64
2021/07/26 07:45:38;;;;;;;0.40;0.40;;;;;;;;;;5020606;28;20146;-63
2021/07/26 07:48:04;;;;;;;0.20;0.20;;;;;;;;;;5034068;28;20091;-63
2021/07/26 07:50:33;;;;;;;0.00;0.00;;;;;;;;;;5015403;28;20036;-63
2021/07/26 07:52:59;;;;;;;0.38;0.10;;;;;;;;;;5021701;28;20047;-63
2021/07/26 07:55:25;;;;;;;0.00;0.00;;;;;;;;;;5015484;28;20020;-63
2021/07/26 07:57:52;;;;;;;0.55;0.10;;;;;;;;;;5037399;28;20110;-62
2021/07/26 08:00:18;;;;;;;0.03;0.03;;;;;;;;;;5035570;28;20066;-63
2021/07/26 08:02:44;;;;;;;0.00;0.00;;;;;;;;;;5034875;28;20032;-62
2021/07/26 08:05:10;;;;;;;1.95;0.77;;;;;;;;;;5018131;28;20920;-63
2021/07/26 08:07:36;;;;;;;0.15;0.15;;;;;;;;;;5036397;28;20032;-63
2021/07/26 08:10:03;;;;;;;0.00;0.00;;;;;;;;;;5033796;28;20037;-63
2021/07/26 08:12:28;;;;;;;0.28;0.13;;;;;;;;;;5035351;28;20028;-62
2021/07/26 08:14:54;;;;;;;0.05;0.05;;;;;;;;;;5034151;28;20099;-62
2021/07/26 08:17:19;;;;;;;0.20;0.20;;;;;;;;;;4992078;28;20116;-63
2021/07/26 08:19:47;;;;;;;0.00;0.00;;;;;;;;;;5034625;28;20487;-63
2021/07/26 08:22:13;;;;;;;0.00;0.00;;;;;;;;;;5032240;28;20082;-64
2021/07/26 08:24:39;;;;;;;0.08;0.08;;;;;;;;;;5034468;28;20483;-63
2021/07/26 08:27:05;;;;;;;0.30;0.15;;;;;;;;;;5034133;28;20033;-63
2021/07/26 08:29:30;;;;;;;0.85;0.20;;;;;;;;;;5020187;28;22340;-63
2021/07/26 08:31:56;;;;;;;0.00;0.00;;;;;;;;;;5033324;28;20025;-63
2021/07/26 08:34:22;;;;;;;0.10;0.10;;;;;;;;;;5031874;28;20063;-62
2021/07/26 08:36:48;;;;;;;0.93;0.10;;;;;;;;;;5033942;28;21138;-62
2021/07/26 08:39:17;;;;;;;0.00;0.00;;;;;;;;;;5031151;28;20029;-63
2021/07/26 08:41:42;;;;;;;0.10;0.10;;;;;;;;;;5007222;28;20078;-62
2021/07/26 08:44:08;;;;;;;0.15;0.15;;;;;;;;;;5004674;28;22345;-63
2021/07/26 08:46:34;;;;;;;0.05;0.00;;;;;;;;;;5015209;28;20032;-63
2021/07/26 08:49:00;;;;;;;2.40;1.20;;;;;;;;;;5015861;28;20024;-63
2021/07/26 08:51:26;;;;;;;2.88;1.75;;;;;;;;;;5032094;28;20040;-63
2021/07/26 08:53:51;;;;;;;3.90;1.70;;;;;;;;;;5031702;28;20052;-63
2021/07/26 08:56:19;;;;;;;3.78;1.65;;;;;;;;;;5005865;28;20111;-61
2021/07/26 08:58:45;;;;;;;3.33;1.80;;;;;;;;;;5012167;28;20018;-62
2021/07/26 09:01:11;;;;;;;2.60;2.08;;;;;;;;;;5032124;28;20025;-63
2021/07/26 09:03:37;;;;;;;2.38;1.83;;;;;;;;;;5031384;28;20036;-62
2021/07/26 09:06:07;;;;;;;3.03;2.25;;;;;;;;;;5017126;28;20041;-62
2021/07/26 09:08:48;;;;;;;3.38;2.15;;;;;;;;;;5030086;28;20115;-62
2021/07/26 09:11:13;;;;;;;2.95;2.15;;;;;;;;;;4999423;28;20595;-64
2021/07/26 09:13:44;;;;;;;2.13;1.55;;;;;;;;;;5034031;28;20032;-63
2021/07/26 09:16:13;;;;;;;3.00;1.98;;;;;;;;;;5004176;28;20120;-63
2021/07/26 09:18:42;;;;;;;2.13;1.65;;;;;;;;;;5016542;28;20506;-63
2021/07/26 09:21:10;;;;;;;2.15;1.77;;;;;;;;;;5022962;28;20043;-63
2021/07/26 09:23:39;;;;;;;2.67;1.73;;;;;;;;;;5034100;28;20063;-63
2021/07/26 09:26:26;;;;;;;3.42;1.90;;;;;;;;;;5017527;28;22084;-63
2021/07/26 09:28:54;;;;;;;2.55;1.65;;;;;;;;;;5014104;28;20048;-64
2021/07/26 09:31:22;;;;;;;5.30;1.60;;;;;;;;;;5013118;28;20037;-63
2021/07/26 09:33:50;;;;;;;4.13;1.77;;;;;;;;;;5030900;28;20032;-63
2021/07/26 09:36:23;;;;;;;2.40;1.70;;;;;;;;;;5030569;28;20045;-63
2021/07/26 09:38:48;;;;;;;1.77;1.45;;;;;;;;;;5032801;28;20029;-63
2021/07/26 09:41:38;;;;;;;2.45;1.70;;;;;;;;;;5020672;28;20104;-63
2021/07/26 09:44:04;;;;;;;2.08;1.65;;;;;;;;;;5011857;28;20060;-63
2021/07/26 09:46:31;;;;;;;4.05;1.70;;;;;;;;;;5033262;28;20036;-63
2021/07/26 09:49:11;;;;;;;4.22;1.80;;;;;;;;;;5031203;28;20901;-62
2021/07/26 09:51:37;;;;;;;4.30;1.98;;;;;;;;;;5030933;28;20806;-64
2021/07/26 09:54:02;;;;;;;3.42;2.15;;;;;;;;;;5000736;28;20048;-61
2021/07/26 09:56:29;;;;;;;2.00;1.73;;;;;;;;;;5032492;28;20047;-62
2021/07/26 09:58:55;;;;;;;2.28;1.45;;;;;;;;;;5015349;28;20013;-62
2021/07/26 10:01:22;;;;;;;2.55;1.58;;;;;;;;;;5033497;28;20083;-64
2021/07/26 10:03:50;;;;;;;2.97;1.45;;;;;;;;;;5017039;28;20126;-63
2021/07/26 10:06:18;;;;;;;2.75;1.45;;;;;;;;;;5034440;28;20230;-62
2021/07/26 10:08:46;;;;;;;4.10;1.30;;;;;;;;;;5020638;28;20555;-62
2021/07/26 10:11:13;;;;;;;2.33;1.60;;;;;;;;;;5037631;28;20233;-62
2021/07/26 10:13:41;;;;;;;1.42;1.20;;;;;;;;;;5019337;28;20039;-64
2021/07/26 10:16:13;;;;;;;2.08;1.65;;;;;;;;;;5017636;28;20041;-63
2021/07/26 10:18:50;;;;;;;3.58;1.67;;;;;;;;;;5035742;28;20049;-64
2021/07/26 10:21:17;;;;;;;3.53;1.77;;;;;;;;;;5036147;28;20029;-64
2021/07/26 10:23:56;;;;;;;5.28;1.75;;;;;;;;;;5037328;28;20021;-66
2021/07/26 10:26:30;;;;;;;2.83;1.52;;;;;;;;;;5038525;28;20112;-65
2021/07/26 10:28:56;;;;;;;5.85;1.48;;;;;;;;;;5035378;28;22037;-65
2021/07/26 10:31:27;;;;;;;2.90;1.58;;;;;;;;;;5022186;28;20065;-64
2021/07/26 10:34:02;;;;;;;4.95;1.55;;;;;;;;;;5024464;28;20159;-63
2021/07/26 10:36:45;;;;;;;2.50;1.25;;;;;;;;;;5018267;28;20982;-65
2021/07/26 10:39:15;;;;;;;2.25;1.35;;;;;;;;;;5038309;28;20067;-65
2021/07/26 10:41:40;;;;;;;2.95;1.70;;;;;;;;;;5016050;28;20351;-66
2021/07/26 10:44:06;;;;;;;1.30;1.20;;;;;;;;;;5014394;28;22238;-65
2021/07/26 10:46:55;;;;;;;3.75;1.35;;;;;;;;;;5016080;28;20043;-66
2021/07/26 10:49:44;;;;;;;2.33;1.23;;;;;;;;;;5030289;28;20057;-65
2021/07/26 10:52:31;;;;;;;1.77;1.23;;;;;;;;;;5015091;28;20064;-65
2021/07/26 10:55:03;;;;;;;2.42;1.38;;;;;;;;;;4989654;28;20037;-66
2021/07/26 10:57:39;;;;;;;4.00;1.52;;;;;;;;;;5032162;28;20059;-67
2021/07/26 11:00:07;;;;;;;1.05;1.02;;;;;;;;;;5022875;28;20044;-65
2021/07/26 11:02:34;;;;;;;1.70;1.10;;;;;;;;;;5030450;28;20155;-67
2021/07/26 11:05:20;;;;;;;2.40;1.20;;;;;;;;;;5016343;28;20138;-67
2021/07/26 11:07:48;;;;;;;3.17;0.90;;;;;;;;;;5020700;28;20063;-66
2021/07/26 11:10:37;;;;;;;1.55;1.13;;;;;;;;;;5018252;28;20041;-67
2021/07/26 11:13:03;;;;;;;2.78;0.93;;;;;;;;;;5015781;28;20047;-67
2021/07/26 11:15:42;;;;;;;2.53;0.95;;;;;;;;;;5031494;28;20366;-67
2021/07/26 11:18:17;;;;;;;1.10;0.88;;;;;;;;;;5015267;28;20063;-67
2021/07/26 11:21:08;;;;;;;4.75;1.38;;;;;;;;;;5023345;28;20691;-67
2021/07/26 11:23:43;;;;;;;1.33;1.20;;;;;;;;;;5011755;28;20045;-66
2021/07/26 11:26:16;;;;;;;4.90;0.90;;;;;;;;;;5015377;28;20030;-66
2021/07/26 11:28:42;;;;;;;3.45;1.10;;;;;;;;;;5014456;28;20124;-67
2021/07/26 11:31:08;;;;;;;2.95;1.10;;;;;;;;;;5015539;28;20044;-67
2021/07/26 11:33:33;;;;;;;1.35;1.05;;;;;;;;;;5014254;28;20707;-67
2021/07/26 11:35:59;;;;;;;1.63;1.00;;;;;;;;;;5015963;28;20037;-68
2021/07/26 11:38:28;;;;;;;4.22;1.13;;;;;;;;;;5015965;28;20030;-66
2021/07/26 11:40:53;;;;;;;1.27;0.80;;;;;;;;;;5017048;28;20044;-67
2021/07/26 11:43:35;;;;;;;3.88;1.30;;;;;;;;;;5031811;28;21080;-66
2021/07/26 11:46:00;;;;;;;2.58;1.52;;;;;;;;;;5016765;28;20066;-64
2021/07/26 11:48:29;;;;;;;3.33;1.45;;;;;;;;;;5017161;28;20531;-65
2021/07/26 11:50:56;;;;;;;3.75;1.27;;;;;;;;;;4990582;28;20769;-65
2021/07/26 11:53:30;;;;;;;1.40;1.25;;;;;;;;;;5005448;28;20500;-65
2021/07/26 11:55:58;;;;;;;3.28;1.30;;;;;;;;;;5014278;28;20056;-64
2021/07/26 11:58:25;;;;;;;1.80;1.05;;;;;;;;;;5019148;28;20030;-65
2021/07/26 12:00:50;;;;;;;6.05;1.50;;;;;;;;;;5016504;28;20029;-64
2021/07/26 12:03:20;;;;;;;1.20;1.00;;;;;;;;;;5016728;28;20029;-65
2021/07/26 12:05:46;;;;;;;2.20;1.00;;;;;;;;;;5017932;28;20048;-65
2021/07/26 12:08:17;;;;;;;1.58;1.48;;;;;;;;;;4996662;28;20531;-64
2021/07/26 12:10:43;;;;;;;6.32;1.08;;;;;;;;;;5016544;28;20029;-65
2021/07/26 12:13:15;;;;;;;5.78;1.27;;;;;;;;;;4998032;28;20033;-65
2021/07/26 12:15:49;;;;;;;3.38;1.60;;;;;;;;;;5014694;28;20038;-64
2021/07/26 12:18:15;;;;;;;4.05;1.15;;;;;;;;;;5014185;28;20087;-65
2021/07/26 12:20:59;;;;;;;1.98;1.70;;;;;;;;;;5004766;28;20053;-65
2021/07/26 12:23:28;;;;;;;11.75;1.60;;;;;;;;;;5002673;28;20455;-65
2021/07/26 12:25:55;;;;;;;1.40;1.00;;;;;;;;;;5016268;28;20048;-66
2021/07/26 12:28:22;;;;;;;1.77;1.33;;;;;;;;;;5014245;28;20053;-65
2021/07/26 12:30:53;;;;;;;3.58;1.27;;;;;;;;;;5012450;28;20123;-66
2021/07/26 12:33:31;;;;;;;2.40;1.30;;;;;;;;;;5015672;28;20112;-65
2021/07/26 12:36:15;;;;;;;2.33;1.20;;;;;;;;;;5020339;28;20044;-66
2021/07/26 12:38:41;;;;;;;2.45;1.02;;;;;;;;;;5014597;28;21031;-67
2021/07/26 12:41:12;;;;;;;1.17;1.05;;;;;;;;;;5013098;28;20029;-66
2021/07/26 12:43:42;;;;;;;1.00;1.00;;;;;;;;;;5013882;28;20068;-64
2021/07/26 12:46:07;;;;;;;1.23;1.13;;;;;;;;;;5003528;28;20071;-66
2021/07/26 12:48:34;;;;;;;3.10;1.38;;;;;;;;;;5019281;28;20041;-65
2021/07/26 12:51:03;;;;;;;1.40;1.30;;;;;;;;;;5034824;28;20757;-65
2021/07/26 12:53:29;;;;;;;2.45;1.30;;;;;;;;;;5035422;28;20138;-65
2021/07/26 12:55:57;;;;;;;2.50;1.38;;;;;;;;;;5007772;28;20036;-66
2021/07/26 12:58:23;;;;;;;1.40;1.30;;;;;;;;;;5033781;28;20090;-65
2021/07/26 13:00:50;;;;;;;2.17;1.38;;;;;;;;;;5017067;28;20024;-65
2021/07/26 13:03:21;;;;;;;3.38;1.33;;;;;;;;;;5034719;28;20024;-65
2021/07/26 13:05:49;;;;;;;1.83;1.30;;;;;;;;;;5007926;28;21105;-65
2021/07/26 13:08:19;;;;;;;6.30;1.38;;;;;;;;;;5014841;28;20036;-66
2021/07/26 13:10:49;;;;;;;2.55;1.20;;;;;;;;;;5035973;28;20425;-65
2021/07/26 13:13:16;;;;;;;2.08;0.90;;;;;;;;;;5033507;28;20033;-65
2021/07/26 13:15:42;;;;;;;1.75;0.85;;;;;;;;;;5016370;28;20136;-66
2021/07/26 13:18:11;;;;;;;0.95;0.68;;;;;;;;;;5034382;28;20026;-64
2021/07/26 13:20:39;;;;;;;0.93;0.80;;;;;;;;;;5028718;28;20045;-69
2021/07/26 13:23:06;;;;;;;1.00;0.80;;;;;;;;;;5024711;28;20045;-65
2021/07/26 13:25:36;;;;;;;4.38;0.90;;;;;;;;;;5018643;28;20203;-66
2021/07/26 13:28:04;;;;;;;2.58;1.10;;;;;;;;;;5033897;28;20048;-65
2021/07/26 13:30:32;;;;;;;1.05;0.60;;;;;;;;;;5033131;28;20037;-64
2021/07/26 13:33:07;;;;;;;3.53;0.98;;;;;;;;;;5013876;28;20033;-65
2021/07/26 13:35:36;;;;;;;1.30;0.90;;;;;;;;;;5016376;28;20033;-65
2021/07/26 13:38:02;;;;;;;1.13;0.80;;;;;;;;;;5024267;28;20033;-66
2021/07/26 13:40:27;;;;;;;1.92;1.00;;;;;;;;;;5022377;28;20040;-63
2021/07/26 13:42:53;;;;;;;0.70;0.68;;;;;;;;;;5037701;28;20025;-65
2021/07/26 13:45:21;;;;;;;2.10;1.05;;;;;;;;;;5020295;28;20080;-63
2021/07/26 13:47:47;;;;;;;2.10;0.80;;;;;;;;;;5019175;28;20581;-64
2021/07/26 13:50:13;;;;;;;2.75;0.70;;;;;;;;;;5037624;28;20086;-64
2021/07/26 13:52:39;;;;;;;3.78;0.90;;;;;;;;;;5037641;28;20037;-62
2021/07/26 13:55:07;;;;;;;2.45;0.70;;;;;;;;;;5022392;28;20128;-65
2021/07/26 13:57:36;;;;;;;2.38;0.70;;;;;;;;;;5038769;28;20051;-65
2021/07/26 14:00:05;;;;;;;1.23;0.75;;;;;;;;;;5037149;28;20047;-65
2021/07/26 14:02:34;;;;;;;0.63;0.63;;;;;;;;;;5028286;28;20064;-64
2021/07/26 14:04:59;;;;;;;4.30;0.98;;;;;;;;;;5009415;28;20032;-64
2021/07/26 14:07:25;;;;;;;1.00;0.82;;;;;;;;;;5011181;28;20036;-64
2021/07/26 14:09:50;;;;;;;2.03;0.93;;;;;;;;;;5024791;28;20048;-63
2021/07/26 14:12:18;;;;;;;3.45;1.10;;;;;;;;;;5015738;28;22036;-64
2021/07/26 14:14:46;;;;;;;0.80;0.80;;;;;;;;;;5034419;28;20037;-64
2021/07/26 14:17:11;;;;;;;1.63;0.70;;;;;;;;;;4999126;28;20466;-64
2021/07/26 14:19:37;;;;;;;2.17;0.80;;;;;;;;;;5035721;28;20036;-64
2021/07/26 14:22:05;;;;;;;1.10;0.80;;;;;;;;;;5016398;28;20829;-63
2021/07/26 14:24:31;;;;;;;2.28;0.70;;;;;;;;;;5015863;28;20044;-62
2021/07/26 14:26:57;;;;;;;0.90;0.68;;;;;;;;;;5034634;28;20089;-64
2021/07/26 14:29:23;;;;;;;2.67;1.15;;;;;;;;;;5031109;28;20434;-64
2021/07/26 14:31:49;;;;;;;1.65;0.68;;;;;;;;;;5037097;28;20064;-64
2021/07/26 14:34:15;;;;;;;1.33;0.85;;;;;;;;;;5038951;28;20098;-64
2021/07/26 14:36:41;;;;;;;0.70;0.70;;;;;;;;;;5026964;28;20063;-65
2021/07/26 14:39:07;;;;;;;2.22;0.80;;;;;;;;;;5035849;28;21019;-65
2021/07/26 14:41:37;;;;;;;1.25;1.15;;;;;;;;;;5037200;28;20144;-66
2021/07/26 14:44:03;;;;;;;1.45;0.88;;;;;;;;;;5008079;28;20055;-64
2021/07/26 14:46:31;;;;;;;2.55;0.70;;;;;;;;;;5024307;28;20045;-65
2021/07/26 14:48:57;;;;;;;1.08;0.80;;;;;;;;;;5019487;28;20021;-64
2021/07/26 14:51:24;;;;;;;1.52;1.05;;;;;;;;;;5025639;28;20076;-64